Time;durP1;ratioP1;P1;durP2;ratioP2;P2;SDS_P1;SDS_P2;PMS_P1;PMS_P2;Temp;Humidity;BMP_temperature;BMP_pressure;BME280_temperature;BME280_humidity;BME280_pressure;Samples;Min_cycle;Max_cycle;Signal;HPM_P1;HPM_P2
2022/05/28 00:00:14;;;;;;;9.15;2.28;;;11.60;92.40;;;;;;2087688;28;20039;-71
2022/05/28 00:01:18;;;;;;;6.30;2.40;;;11.60;92.10;;;;;;2087408;28;20024;-71
2022/05/28 00:02:19;;;;;;;9.35;2.20;;;11.60;91.90;;;;;;2088612;28;20374;-70
2022/05/28 00:03:20;;;;;;;6.72;2.30;;;11.50;91.70;;;;;;2088478;28;20033;-70
2022/05/28 00:04:21;;;;;;;5.90;2.40;;;11.50;91.80;;;;;;2087569;28;20580;-72
2022/05/28 00:05:21;;;;;;;7.75;2.30;;;11.50;91.80;;;;;;2087828;28;20033;-71
2022/05/28 00:06:24;;;;;;;4.85;2.05;;;11.50;91.90;;;;;;2088366;28;20021;-70
2022/05/28 00:07:24;;;;;;;6.32;2.40;;;11.50;91.80;;;;;;2087762;28;20021;-71
2022/05/28 00:08:25;;;;;;;10.63;2.30;;;11.50;91.90;;;;;;2087714;28;20566;-72
2022/05/28 00:09:26;;;;;;;7.20;2.22;;;11.50;91.90;;;;;;2088258;28;20029;-71
2022/05/28 00:10:26;;;;;;;10.43;2.72;;;11.50;91.90;;;;;;2088046;28;20475;-71
2022/05/28 00:11:31;;;;;;;7.35;2.30;;;11.50;91.80;;;;;;2088124;28;20032;-70
2022/05/28 00:12:32;;;;;;;7.70;2.50;;;11.50;91.70;;;;;;2088153;28;20487;-71
2022/05/28 00:13:33;;;;;;;6.78;2.30;;;11.50;91.70;;;;;;2088245;28;20115;-71
2022/05/28 00:14:33;;;;;;;9.75;2.40;;;11.40;91.80;;;;;;2087366;28;20569;-71
2022/05/28 00:15:34;;;;;;;7.70;2.60;;;11.40;91.90;;;;;;2087629;28;20611;-71
2022/05/28 00:16:36;;;;;;;7.57;2.58;;;11.40;91.90;;;;;;2088266;28;20037;-72
2022/05/28 00:17:36;;;;;;;10.15;2.70;;;11.40;91.80;;;;;;2088208;28;20067;-71
2022/05/28 00:18:38;;;;;;;8.15;2.38;;;11.40;92.00;;;;;;2088329;28;20047;-71
2022/05/28 00:19:39;;;;;;;7.90;2.50;;;11.40;92.10;;;;;;2088269;28;20410;-71
2022/05/28 00:20:39;;;;;;;8.07;2.45;;;11.40;92.00;;;;;;2088051;28;20063;-71
2022/05/28 00:21:40;;;;;;;8.45;2.78;;;11.40;92.10;;;;;;2088016;28;20033;-70
2022/05/28 00:22:43;;;;;;;6.18;2.20;;;11.40;92.10;;;;;;2088072;28;20037;-71
2022/05/28 00:23:44;;;;;;;6.85;2.42;;;11.30;92.10;;;;;;2088057;28;20027;-71
2022/05/28 00:24:45;;;;;;;6.10;2.47;;;11.30;92.20;;;;;;2088085;28;20405;-71
2022/05/28 00:25:47;;;;;;;8.00;2.38;;;11.30;92.20;;;;;;2088142;28;20140;-71
2022/05/28 00:26:48;;;;;;;6.15;2.20;;;11.30;92.30;;;;;;2087807;28;20433;-71
2022/05/28 00:27:49;;;;;;;8.15;2.35;;;11.30;92.70;;;;;;2087375;28;20025;-71
2022/05/28 00:28:50;;;;;;;7.75;2.70;;;11.30;92.50;;;;;;2087605;28;20359;-70
2022/05/28 00:29:51;;;;;;;6.75;2.17;;;11.30;92.40;;;;;;2088181;28;20048;-71
2022/05/28 00:30:52;;;;;;;4.82;2.15;;;11.30;92.50;;;;;;2087891;28;20040;-71
2022/05/28 00:31:53;;;;;;;8.10;2.63;;;11.30;92.70;;;;;;2088148;28;20037;-71
2022/05/28 00:32:53;;;;;;;7.63;2.38;;;11.30;92.80;;;;;;2088055;28;20021;-71
2022/05/28 00:33:54;;;;;;;7.75;2.58;;;11.30;92.60;;;;;;2088054;28;20057;-71
2022/05/28 00:34:56;;;;;;;11.32;2.90;;;11.20;92.70;;;;;;2088767;28;20033;-71
2022/05/28 00:35:58;;;;;;;8.10;2.40;;;11.20;92.90;;;;;;2091629;28;20502;-73
2022/05/28 00:36:58;;;;;;;9.73;2.42;;;11.20;92.80;;;;;;2091970;28;20479;-72
2022/05/28 00:37:59;;;;;;;7.68;2.30;;;11.30;92.50;;;;;;2088870;28;20071;-71
2022/05/28 00:38:59;;;;;;;8.68;2.55;;;11.20;92.30;;;;;;2088153;28;20451;-71
2022/05/28 00:40:02;;;;;;;7.90;2.30;;;11.30;92.30;;;;;;2087843;28;20107;-72
2022/05/28 00:41:04;;;;;;;6.35;2.30;;;11.30;92.50;;;;;;2087914;28;20037;-71
2022/05/28 00:42:05;;;;;;;6.72;2.38;;;11.30;92.60;;;;;;2088024;28;20020;-71
2022/05/28 00:43:06;;;;;;;8.07;2.13;;;11.30;92.70;;;;;;2088087;28;20338;-70
2022/05/28 00:44:06;;;;;;;7.85;2.30;;;11.30;92.60;;;;;;2087744;28;20040;-72
2022/05/28 00:45:09;;;;;;;7.45;2.40;;;11.30;92.70;;;;;;2087989;28;20033;-71
2022/05/28 00:46:23;;;;;;;8.10;2.13;;;11.30;92.30;;;;;;2087900;28;20037;-71
2022/05/28 00:47:24;;;;;;;8.70;2.22;;;11.30;92.50;;;;;;2087902;28;20093;-71
2022/05/28 00:48:29;;;;;;;8.25;2.03;;;11.30;92.40;;;;;;2087639;28;20115;-71
2022/05/28 00:49:32;;;;;;;10.23;2.30;;;11.30;92.70;;;;;;2087921;28;20025;-71
2022/05/28 00:50:37;;;;;;;9.35;2.45;;;11.30;92.80;;;;;;2087012;28;20116;-70
2022/05/28 00:51:46;;;;;;;8.55;2.40;;;11.30;92.90;;;;;;2087340;28;20116;-71
2022/05/28 00:52:47;;;;;;;11.10;2.25;;;11.30;92.30;;;;;;2087988;28;20116;-71
2022/05/28 00:53:48;;;;;;;6.75;2.20;;;11.30;92.30;;;;;;2087666;28;20036;-71
2022/05/28 00:54:50;;;;;;;7.22;2.28;;;11.30;92.40;;;;;;2087961;28;20047;-71
2022/05/28 00:55:51;;;;;;;6.15;2.20;;;11.30;92.50;;;;;;2088003;28;20071;-71
2022/05/28 00:56:52;;;;;;;6.82;2.00;;;11.30;92.60;;;;;;2087376;28;20037;-71
2022/05/28 00:57:52;;;;;;;6.85;2.10;;;11.30;92.70;;;;;;2087360;28;20037;-72
2022/05/28 00:58:53;;;;;;;5.35;1.92;;;11.20;92.60;;;;;;2087994;28;20039;-71
2022/05/28 00:59:54;;;;;;;9.80;2.50;;;11.20;92.70;;;;;;2087762;28;20033;-71
2022/05/28 01:00:56;;;;;;;8.63;2.25;;;11.30;93.10;;;;;;2087906;28;20103;-71
2022/05/28 01:02:04;;;;;;;7.75;2.13;;;11.20;92.60;;;;;;2087257;28;20033;-72
2022/05/28 01:03:29;;;;;;;9.80;2.15;;;11.20;92.50;;;;;;2087358;28;20067;-72
2022/05/28 01:04:36;;;;;;;7.05;2.10;;;11.20;92.70;;;;;;2087764;28;20032;-71
2022/05/28 01:05:41;;;;;;;9.27;2.10;;;11.20;92.80;;;;;;2087788;28;20407;-72
2022/05/28 01:07:17;;;;;;;9.10;2.35;;;11.20;93.20;;;;;;2087913;28;20051;-70
2022/05/28 01:08:30;;;;;;;9.90;2.00;;;11.30;93.10;;;;;;2088087;28;20024;-71
2022/05/28 01:09:55;;;;;;;5.13;1.83;;;11.20;93.40;;;;;;2088046;28;20029;-71
2022/05/28 01:11:02;;;;;;;8.40;2.22;;;11.20;94.10;;;;;;2087899;28;20578;-72
2022/05/28 01:12:13;;;;;;;9.25;2.30;;;11.20;94.30;;;;;;2087382;28;20063;-71
2022/05/28 01:13:45;;;;;;;6.13;1.85;;;11.10;94.50;;;;;;2087559;28;20103;-72
2022/05/28 01:14:52;;;;;;;6.80;1.95;;;11.10;94.40;;;;;;2074662;28;20142;-70
2022/05/28 01:16:09;;;;;;;10.02;2.40;;;11.10;94.50;;;;;;2087890;28;20021;-71
2022/05/28 01:17:24;;;;;;;6.85;2.22;;;11.20;94.90;;;;;;2087783;28;20025;-72
2022/05/28 01:18:34;;;;;;;7.45;2.10;;;11.10;95.10;;;;;;2087898;28;20063;-70
2022/05/28 01:20:01;;;;;;;10.85;2.40;;;11.10;95.60;;;;;;2087920;28;20441;-72
2022/05/28 01:21:19;;;;;;;7.25;2.20;;;11.10;95.60;;;;;;2087369;28;20086;-71
2022/05/28 01:22:47;;;;;;;7.68;2.30;;;11.10;95.80;;;;;;2087657;28;20016;-71
2022/05/28 01:24:04;;;;;;;9.40;2.30;;;11.00;96.00;;;;;;2087747;28;20123;-71
2022/05/28 01:25:31;;;;;;;7.90;2.10;;;11.00;96.20;;;;;;2088322;28;20535;-72
2022/05/28 01:26:55;;;;;;;7.13;2.05;;;11.00;96.30;;;;;;2056489;28;20133;-72
2022/05/28 01:28:04;;;;;;;7.55;2.35;;;11.00;96.30;;;;;;2087653;28;20045;-72
2022/05/28 01:29:08;;;;;;;6.63;2.20;;;11.00;96.50;;;;;;2087971;28;20080;-71
2022/05/28 01:30:13;;;;;;;10.25;2.65;;;11.00;96.70;;;;;;2087919;28;20040;-71
2022/05/28 01:31:16;;;;;;;6.47;2.15;;;11.00;96.90;;;;;;2088050;28;20047;-71
2022/05/28 01:32:18;;;;;;;7.13;2.33;;;11.00;97.10;;;;;;2088131;28;20025;-71
2022/05/28 01:33:20;;;;;;;8.88;2.20;;;11.00;97.30;;;;;;2088012;28;20467;-71
2022/05/28 01:34:22;;;;;;;8.65;2.20;;;11.00;97.20;;;;;;2087744;28;20029;-71
2022/05/28 01:35:24;;;;;;;7.53;2.40;;;11.00;97.60;;;;;;2087810;28;20067;-72
2022/05/28 01:36:25;;;;;;;8.13;2.20;;;10.90;97.70;;;;;;2087237;28;20017;-71
2022/05/28 01:37:27;;;;;;;7.15;1.90;;;10.90;97.60;;;;;;2087501;28;20029;-71
2022/05/28 01:38:29;;;;;;;8.45;2.33;;;10.90;97.30;;;;;;2088238;28;20040;-71
2022/05/28 01:39:31;;;;;;;8.20;2.28;;;10.90;97.50;;;;;;2088329;28;20460;-71
2022/05/28 01:40:33;;;;;;;7.38;2.25;;;10.90;97.40;;;;;;2089160;28;20075;-71
2022/05/28 01:41:36;;;;;;;7.93;2.30;;;10.90;97.70;;;;;;2088452;28;20420;-71
2022/05/28 01:42:41;;;;;;;9.30;2.20;;;10.90;98.10;;;;;;2088790;28;20047;-71
2022/05/28 01:43:45;;;;;;;7.55;2.10;;;10.90;98.30;;;;;;2089184;28;20472;-71
2022/05/28 01:44:49;;;;;;;8.80;2.53;;;10.90;98.30;;;;;;2088740;28;20116;-71
2022/05/28 01:45:51;;;;;;;7.20;2.13;;;10.90;98.60;;;;;;2088711;28;20036;-72
2022/05/28 01:46:53;;;;;;;9.43;2.17;;;10.90;98.90;;;;;;2088844;28;20017;-71
2022/05/28 01:47:56;;;;;;;8.85;2.20;;;10.90;99.60;;;;;;2088992;28;20037;-71
2022/05/28 01:48:58;;;;;;;8.10;2.20;;;10.90;99.40;;;;;;2089337;28;20025;-71
2022/05/28 01:50:03;;;;;;;5.85;2.03;;;10.90;99.10;;;;;;2088531;28;20025;-72
2022/05/28 01:51:06;;;;;;;6.13;1.98;;;10.90;99.10;;;;;;2088869;28;20021;-72
2022/05/28 01:52:08;;;;;;;6.10;2.13;;;10.90;98.90;;;;;;2088009;28;20037;-72
2022/05/28 01:53:11;;;;;;;7.80;2.17;;;10.90;98.80;;;;;;2088450;28;20033;-71
2022/05/28 01:54:15;;;;;;;8.73;2.40;;;10.80;98.60;;;;;;2088890;28;20032;-71
2022/05/28 01:55:18;;;;;;;10.07;2.10;;;10.80;98.90;;;;;;2087421;28;20029;-71
2022/05/28 01:56:19;;;;;;;10.52;2.28;;;10.80;98.90;;;;;;2087055;28;20024;-71
2022/05/28 01:57:20;;;;;;;8.75;2.35;;;10.80;98.20;;;;;;2087682;28;20479;-71
2022/05/28 01:58:20;;;;;;;7.45;2.30;;;10.70;98.20;;;;;;2087672;28;20047;-71
2022/05/28 01:59:27;;;;;;;7.93;2.20;;;10.80;98.40;;;;;;2087605;28;20032;-71
2022/05/28 02:00:28;;;;;;;9.60;2.20;;;10.80;98.90;;;;;;2087310;28;20028;-71
2022/05/28 02:01:29;;;;;;;9.48;2.50;;;10.80;98.90;;;;;;2087663;28;20442;-71
2022/05/28 02:02:30;;;;;;;8.90;2.28;;;10.70;98.00;;;;;;2087605;28;20025;-70
2022/05/28 02:03:33;;;;;;;6.63;2.20;;;10.80;97.90;;;;;;2087502;28;20566;-70
2022/05/28 02:04:36;;;;;;;6.88;2.00;;;10.80;98.00;;;;;;2088324;28;20394;-70
2022/05/28 02:05:37;;;;;;;8.00;2.30;;;10.80;98.30;;;;;;2089298;28;20095;-72
2022/05/28 02:06:40;;;;;;;8.05;2.05;;;10.80;98.20;;;;;;2089230;28;20029;-72
2022/05/28 02:07:41;;;;;;;8.70;2.40;;;10.80;98.50;;;;;;2088597;28;20025;-71
2022/05/28 02:08:45;;;;;;;10.70;2.45;;;10.90;99.00;;;;;;2088675;28;20104;-70
2022/05/28 02:09:53;;;;;;;10.25;2.30;;;10.90;98.60;;;;;;2089163;28;20033;-70
2022/05/28 02:11:26;;;;;;;9.23;2.20;;;10.90;98.50;;;;;;2089231;28;20031;-70
2022/05/28 02:12:31;;;;;;;8.73;2.40;;;11.00;98.80;;;;;;2077333;28;20060;-70
2022/05/28 02:14:02;;;;;;;8.98;2.38;;;11.00;98.40;;;;;;2089233;28;20033;-71
2022/05/28 02:15:16;;;;;;;9.98;2.30;;;11.00;98.70;;;;;;2089346;28;20041;-71
2022/05/28 02:16:41;;;;;;;11.13;2.40;;;11.00;98.90;;;;;;2089263;28;20324;-71
2022/05/28 02:17:52;;;;;;;7.07;2.15;;;11.00;98.60;;;;;;2089131;28;20559;-71
2022/05/28 02:18:57;;;;;;;9.43;2.38;;;11.00;98.90;;;;;;2089364;28;20723;-71
2022/05/28 02:20:20;;;;;;;9.05;2.10;;;11.00;98.40;;;;;;2089192;28;20495;-71
2022/05/28 02:21:34;;;;;;;7.45;2.28;;;10.90;98.70;;;;;;2089230;28;20079;-70
2022/05/28 02:22:38;;;;;;;6.97;2.30;;;10.90;98.80;;;;;;2080228;28;20068;-71
2022/05/28 02:24:05;;;;;;;7.30;2.47;;;10.90;98.60;;;;;;2080765;28;20037;-70
2022/05/28 02:25:13;;;;;;;8.52;2.08;;;10.90;98.70;;;;;;2089185;28;20044;-69
2022/05/28 02:26:22;;;;;;;7.13;2.05;;;10.80;98.70;;;;;;2089319;28;20490;-70
2022/05/28 02:27:26;;;;;;;7.72;1.90;;;10.80;98.90;;;;;;2088863;28;20029;-70
2022/05/28 02:28:29;;;;;;;9.60;2.20;;;10.80;99.40;;;;;;2089291;28;20515;-70
2022/05/28 02:29:31;;;;;;;8.68;2.45;;;10.80;99.70;;;;;;2089146;28;20395;-70
2022/05/28 02:30:32;;;;;;;10.02;2.08;;;10.70;99.50;;;;;;2088981;28;20108;-71
2022/05/28 02:31:34;;;;;;;8.75;2.20;;;10.70;99.70;;;;;;2089182;28;20398;-72
2022/05/28 02:32:35;;;;;;;7.18;2.17;;;10.70;99.90;;;;;;2089177;28;20174;-71
2022/05/28 02:33:35;;;;;;;5.40;2.00;;;10.70;99.90;;;;;;2089079;28;20029;-70
2022/05/28 02:34:36;;;;;;;10.95;2.45;;;10.70;99.90;;;;;;2089083;28;20029;-71
2022/05/28 02:35:36;;;;;;;7.60;2.75;;;10.70;99.90;;;;;;2089169;28;20040;-71
2022/05/28 02:36:38;;;;;;;7.55;2.50;;;10.70;99.90;;;;;;2088929;28;20036;-70
2022/05/28 02:37:38;;;;;;;5.10;2.17;;;10.60;99.90;;;;;;2088459;28;20104;-72
2022/05/28 02:38:39;;;;;;;8.32;2.10;;;10.60;99.90;;;;;;2088532;28;20134;-72
2022/05/28 02:39:40;;;;;;;9.13;2.72;;;10.70;99.90;;;;;;2089216;28;20441;-70
2022/05/28 02:40:41;;;;;;;6.00;2.13;;;10.60;99.90;;;;;;2089172;28;20107;-72
2022/05/28 02:41:42;;;;;;;7.05;2.25;;;10.70;99.90;;;;;;2089438;28;20212;-70
2022/05/28 02:42:42;;;;;;;11.40;2.53;;;10.70;99.90;;;;;;2088576;28;20025;-71
2022/05/28 02:43:43;;;;;;;8.48;2.75;;;10.70;99.90;;;;;;2088481;28;20041;-71
2022/05/28 02:44:43;;;;;;;8.35;2.25;;;10.70;99.90;;;;;;2089299;28;20079;-71
2022/05/28 02:45:44;;;;;;;7.50;2.60;;;10.70;99.90;;;;;;2089328;28;20031;-71
2022/05/28 02:46:44;;;;;;;9.05;2.45;;;10.70;99.90;;;;;;2089132;28;20435;-72
2022/05/28 02:47:46;;;;;;;10.27;2.60;;;10.60;99.90;;;;;;2089142;28;20033;-72
2022/05/28 02:48:47;;;;;;;11.00;2.70;;;10.70;99.90;;;;;;2088995;28;20021;-71
2022/05/28 02:49:47;;;;;;;8.50;2.33;;;10.70;99.90;;;;;;2088771;28;20036;-71
2022/05/28 02:50:48;;;;;;;9.18;2.30;;;10.70;99.90;;;;;;2088900;28;20392;-72
2022/05/28 02:51:49;;;;;;;10.15;2.25;;;10.70;99.90;;;;;;2088374;28;20055;-72
2022/05/28 02:52:49;;;;;;;6.95;2.30;;;10.70;99.90;;;;;;2088288;28;20057;-71
2022/05/28 02:53:53;;;;;;;5.28;2.20;;;10.70;99.90;;;;;;2088695;28;20114;-71
2022/05/28 02:54:53;;;;;;;7.65;2.40;;;10.70;99.90;;;;;;2088922;28;20033;-71
2022/05/28 02:55:54;;;;;;;7.35;2.25;;;10.70;99.90;;;;;;2088249;28;20033;-71
2022/05/28 02:56:55;;;;;;;6.93;2.30;;;10.60;99.90;;;;;;2088590;28;20588;-71
2022/05/28 02:57:55;;;;;;;6.80;2.20;;;10.60;99.90;;;;;;2088359;28;20061;-71
2022/05/28 02:58:56;;;;;;;8.20;2.25;;;10.60;99.90;;;;;;2089228;28;20393;-71
2022/05/28 02:59:56;;;;;;;5.28;1.98;;;10.60;99.90;;;;;;2088363;28;20549;-71
2022/05/28 03:00:57;;;;;;;8.90;2.30;;;10.50;99.90;;;;;;2088375;28;20515;-73
2022/05/28 03:01:58;;;;;;;8.43;2.25;;;10.50;99.90;;;;;;2088979;28;20446;-71
2022/05/28 03:02:59;;;;;;;5.78;2.28;;;10.50;99.90;;;;;;2088965;28;20467;-71
2022/05/28 03:04:00;;;;;;;8.27;2.33;;;10.40;99.90;;;;;;2088214;28;20029;-71
2022/05/28 03:05:00;;;;;;;7.65;2.47;;;10.40;99.90;;;;;;2088469;28;20428;-71
2022/05/28 03:06:01;;;;;;;9.82;2.70;;;10.30;99.90;;;;;;2088356;28;20025;-71
2022/05/28 03:07:02;;;;;;;8.88;2.63;;;10.30;99.90;;;;;;2088981;28;20590;-71
2022/05/28 03:08:02;;;;;;;10.68;2.47;;;10.30;99.90;;;;;;2088832;28;20060;-71
2022/05/28 03:09:07;;;;;;;7.40;2.60;;;10.30;99.90;;;;;;2088971;28;20029;-72
2022/05/28 03:10:11;;;;;;;10.45;2.85;;;10.30;99.90;;;;;;2088663;28;20048;-71
2022/05/28 03:11:11;;;;;;;10.10;2.40;;;10.20;99.90;;;;;;2088782;28;20032;-72
2022/05/28 03:12:12;;;;;;;6.97;2.22;;;10.20;99.90;;;;;;2088171;28;20024;-71
2022/05/28 03:13:13;;;;;;;8.40;2.38;;;10.20;99.90;;;;;;2088019;28;20044;-71
2022/05/28 03:14:14;;;;;;;7.47;2.40;;;10.20;99.90;;;;;;2088715;28;20021;-71
2022/05/28 03:15:14;;;;;;;9.80;2.50;;;10.20;99.90;;;;;;2088087;28;20554;-71
2022/05/28 03:16:15;;;;;;;11.32;2.40;;;10.20;99.90;;;;;;2086752;28;20182;-70
2022/05/28 03:17:16;;;;;;;10.13;2.63;;;10.20;99.90;;;;;;2087966;28;20032;-70
2022/05/28 03:18:16;;;;;;;8.57;2.30;;;10.20;99.90;;;;;;2087975;28;20025;-71
2022/05/28 03:19:17;;;;;;;8.90;2.40;;;10.20;99.90;;;;;;2088791;28;20407;-71
2022/05/28 03:20:18;;;;;;;7.72;2.30;;;10.20;99.90;;;;;;2088668;28;20075;-72
2022/05/28 03:21:19;;;;;;;7.93;2.50;;;10.20;99.90;;;;;;2088599;28;20029;-71
2022/05/28 03:22:19;;;;;;;10.93;2.75;;;10.20;99.90;;;;;;2088697;28;20035;-72
2022/05/28 03:23:20;;;;;;;6.57;2.25;;;10.20;99.90;;;;;;2088533;28;20092;-71
2022/05/28 03:24:21;;;;;;;9.57;2.33;;;10.20;99.90;;;;;;2088398;28;20047;-71
2022/05/28 03:25:22;;;;;;;6.68;2.30;;;10.20;99.90;;;;;;2088593;28;20092;-69
2022/05/28 03:26:25;;;;;;;6.97;2.33;;;10.20;99.90;;;;;;2088525;28;20033;-70
2022/05/28 03:27:26;;;;;;;9.55;2.30;;;10.30;99.90;;;;;;2088567;28;20103;-70
2022/05/28 03:28:26;;;;;;;5.70;1.95;;;10.30;99.90;;;;;;2088745;28;20538;-70
2022/05/28 03:29:27;;;;;;;6.57;2.15;;;10.40;99.90;;;;;;2088619;28;20100;-69
2022/05/28 03:30:28;;;;;;;8.10;2.40;;;10.40;99.90;;;;;;2088394;28;20025;-70
2022/05/28 03:31:29;;;;;;;5.60;1.70;;;10.50;99.90;;;;;;2088616;28;20057;-70
2022/05/28 03:32:29;;;;;;;5.80;2.15;;;10.50;99.90;;;;;;2088647;28;20207;-69
2022/05/28 03:33:30;;;;;;;6.22;1.90;;;10.60;99.90;;;;;;2088006;28;20060;-69
2022/05/28 03:34:31;;;;;;;7.93;2.17;;;10.70;99.90;;;;;;2087682;28;20464;-70
2022/05/28 03:35:31;;;;;;;8.07;2.22;;;10.70;99.90;;;;;;2088615;28;20029;-70
2022/05/28 03:36:32;;;;;;;8.23;2.35;;;10.70;99.90;;;;;;2088529;28;20067;-69
2022/05/28 03:37:33;;;;;;;7.70;2.30;;;10.70;99.90;;;;;;2087795;28;20459;-71
2022/05/28 03:38:35;;;;;;;7.85;1.92;;;10.70;99.90;;;;;;2087981;28;20025;-70
2022/05/28 03:39:35;;;;;;;7.55;2.20;;;10.80;99.90;;;;;;2088328;28;20041;-70
2022/05/28 03:40:36;;;;;;;7.43;2.10;;;10.80;99.90;;;;;;2088559;28;20075;-70
2022/05/28 03:41:37;;;;;;;9.23;2.05;;;10.90;99.90;;;;;;2088527;28;20110;-70
2022/05/28 03:42:37;;;;;;;6.82;2.20;;;10.90;99.90;;;;;;2088618;28;20395;-70
2022/05/28 03:43:38;;;;;;;7.10;2.35;;;10.90;99.90;;;;;;2087866;28;20434;-70
2022/05/28 03:44:39;;;;;;;10.23;2.40;;;10.80;99.90;;;;;;2079414;28;20033;-71
2022/05/28 03:45:39;;;;;;;7.35;2.05;;;10.80;99.90;;;;;;2087881;28;20074;-70
2022/05/28 03:46:40;;;;;;;9.32;2.10;;;10.80;99.90;;;;;;2088497;28;20037;-70
2022/05/28 03:47:40;;;;;;;10.18;2.38;;;10.80;99.90;;;;;;2088610;28;20029;-69
2022/05/28 03:48:41;;;;;;;6.97;2.40;;;10.80;99.90;;;;;;2088734;28;20021;-70
2022/05/28 03:49:43;;;;;;;5.70;1.90;;;10.90;99.90;;;;;;2087885;28;20025;-70
2022/05/28 03:50:44;;;;;;;5.88;2.22;;;10.90;99.90;;;;;;2087641;28;20032;-70
2022/05/28 03:51:45;;;;;;;7.03;2.03;;;10.90;99.90;;;;;;2087805;28;20037;-70
2022/05/28 03:52:45;;;;;;;8.52;1.85;;;11.00;99.90;;;;;;2088290;28;20025;-70
2022/05/28 03:53:46;;;;;;;7.88;2.00;;;11.00;99.90;;;;;;2088464;28;20559;-70
2022/05/28 03:54:46;;;;;;;7.90;2.20;;;11.00;99.90;;;;;;2088540;28;20398;-70
2022/05/28 03:55:47;;;;;;;8.55;1.92;;;11.00;99.90;;;;;;2088587;28;20399;-70
2022/05/28 03:56:53;;;;;;;8.68;2.20;;;11.10;99.90;;;;;;2087752;28;20068;-70
2022/05/28 03:57:53;;;;;;;9.68;2.40;;;11.10;99.90;;;;;;2087937;28;20403;-69
2022/05/28 03:58:54;;;;;;;5.45;1.90;;;11.10;99.90;;;;;;2088431;28;20049;-70
2022/05/28 03:59:56;;;;;;;7.53;1.90;;;11.10;99.90;;;;;;2088346;28;20043;-70
2022/05/28 04:00:57;;;;;;;7.50;2.20;;;11.00;99.90;;;;;;2088102;28;20491;-70
2022/05/28 04:01:57;;;;;;;7.32;2.03;;;11.10;99.90;;;;;;2088485;28;20033;-70
2022/05/28 04:02:58;;;;;;;7.45;2.30;;;11.10;99.90;;;;;;2088430;28;20044;-70
2022/05/28 04:03:59;;;;;;;6.18;1.90;;;11.10;99.90;;;;;;2088238;28;20048;-71
2022/05/28 04:04:59;;;;;;;5.82;1.55;;;11.10;99.90;;;;;;2088500;28;20025;-70
2022/05/28 04:06:02;;;;;;;8.73;2.50;;;11.10;99.90;;;;;;2088634;28;20575;-70
2022/05/28 04:07:02;;;;;;;7.75;2.15;;;11.10;99.90;;;;;;2088319;28;20086;-70
2022/05/28 04:08:04;;;;;;;8.63;2.00;;;11.00;99.90;;;;;;2088407;28;20094;-70
2022/05/28 04:09:05;;;;;;;6.95;1.95;;;11.10;99.90;;;;;;2088124;28;20037;-70
2022/05/28 04:10:08;;;;;;;7.82;1.95;;;11.00;99.90;;;;;;2087973;28;20111;-70
2022/05/28 04:11:08;;;;;;;7.65;1.92;;;11.10;99.90;;;;;;2088308;28;20051;-70
2022/05/28 04:14:25;;;;;;;7.38;2.10;;;11.00;99.90;;;;;;2088315;28;20055;-70
2022/05/28 04:15:28;;;;;;;8.38;1.88;;;11.00;99.90;;;;;;2088287;28;20021;-71
2022/05/28 04:16:29;;;;;;;7.45;1.90;;;11.00;99.90;;;;;;2088514;28;20080;-69
2022/05/28 04:17:30;;;;;;;6.93;1.90;;;11.10;99.90;;;;;;2088453;28;20025;-70
2022/05/28 04:18:31;;;;;;;13.48;5.53;;;11.10;99.90;;;;;;2088485;28;20033;-70
2022/05/28 04:19:32;;;;;;;10.55;3.50;;;11.00;99.90;;;;;;2088355;28;20487;-71
2022/05/28 04:20:32;;;;;;;10.00;2.67;;;11.10;99.90;;;;;;2088087;28;20471;-71
2022/05/28 04:21:33;;;;;;;9.10;2.20;;;11.00;99.90;;;;;;2088355;28;20132;-71
2022/05/28 04:22:33;;;;;;;12.25;2.42;;;11.10;99.90;;;;;;2088168;28;20490;-70
2022/05/28 04:23:34;;;;;;;8.40;1.90;;;11.10;99.90;;;;;;2087387;28;20033;-71
2022/05/28 04:24:35;;;;;;;6.15;1.73;;;11.10;99.90;;;;;;2087643;28;20060;-71
2022/05/28 04:25:36;;;;;;;8.85;2.00;;;11.10;99.90;;;;;;2088075;28;20029;-71
2022/05/28 04:26:36;;;;;;;8.10;2.05;;;11.20;99.90;;;;;;2088125;28;20043;-71
2022/05/28 04:27:40;;;;;;;7.40;2.17;;;11.20;99.90;;;;;;2086868;28;20025;-71
2022/05/28 04:28:41;;;;;;;9.80;2.17;;;11.30;99.90;;;;;;2087547;28;20419;-71
2022/05/28 04:29:41;;;;;;;10.23;2.05;;;11.30;99.90;;;;;;2087495;28;20025;-70
2022/05/28 04:30:42;;;;;;;8.32;2.20;;;11.30;99.90;;;;;;2088075;28;20348;-70
2022/05/28 04:31:42;;;;;;;7.13;2.00;;;11.30;99.90;;;;;;2088195;28;20108;-71
2022/05/28 04:32:43;;;;;;;9.00;2.53;;;11.30;99.90;;;;;;2087931;28;20041;-71
2022/05/28 04:33:44;;;;;;;7.80;2.00;;;11.30;99.90;;;;;;2087465;28;20036;-71
2022/05/28 04:34:45;;;;;;;8.57;2.33;;;11.30;99.90;;;;;;2087620;28;20033;-72
2022/05/28 04:35:45;;;;;;;9.23;2.28;;;11.20;99.90;;;;;;2087992;28;20208;-70
2022/05/28 04:36:46;;;;;;;6.45;2.10;;;11.30;99.90;;;;;;2088299;28;20491;-70
2022/05/28 04:37:46;;;;;;;7.40;2.08;;;11.30;99.90;;;;;;2088468;28;20354;-71
2022/05/28 04:38:47;;;;;;;7.80;1.80;;;11.40;99.90;;;;;;2088225;28;20483;-71
2022/05/28 04:39:48;;;;;;;7.07;2.13;;;11.40;99.90;;;;;;2088274;28;20037;-70
2022/05/28 04:40:48;;;;;;;8.13;1.85;;;11.30;99.90;;;;;;2087930;28;20414;-70
2022/05/28 04:41:49;;;;;;;7.07;2.15;;;11.30;99.90;;;;;;2088024;28;20060;-70
2022/05/28 04:42:49;;;;;;;5.70;1.85;;;11.30;99.90;;;;;;2088024;28;20028;-70
2022/05/28 04:43:50;;;;;;;6.18;1.77;;;11.30;99.90;;;;;;2087962;28;20461;-71
2022/05/28 04:44:51;;;;;;;10.00;2.30;;;11.30;99.90;;;;;;2087948;28;20025;-71
2022/05/28 04:45:51;;;;;;;8.52;2.13;;;11.30;99.90;;;;;;2088044;28;20819;-70
2022/05/28 04:46:52;;;;;;;7.93;2.03;;;11.20;99.90;;;;;;2088105;28;20068;-70
2022/05/28 04:47:53;;;;;;;7.45;1.98;;;11.20;99.90;;;;;;2087327;28;20051;-71
2022/05/28 04:48:53;;;;;;;7.55;2.08;;;11.10;99.90;;;;;;2087420;28;20088;-71
2022/05/28 04:49:57;;;;;;;7.63;2.00;;;11.10;99.90;;;;;;2088006;28;20036;-70
2022/05/28 04:51:00;;;;;;;7.72;2.10;;;11.00;99.90;;;;;;2087375;28;20024;-71
2022/05/28 04:52:01;;;;;;;7.03;1.95;;;10.80;99.90;;;;;;2087418;28;20491;-72
2022/05/28 04:53:01;;;;;;;11.48;2.47;;;10.80;99.90;;;;;;2087948;28;20040;-70
2022/05/28 04:54:02;;;;;;;8.52;2.30;;;10.70;99.90;;;;;;2088127;28;20043;-71
2022/05/28 04:55:03;;;;;;;10.10;2.33;;;10.60;99.90;;;;;;2088148;28;20420;-71
2022/05/28 04:56:03;;;;;;;8.75;2.60;;;10.50;99.90;;;;;;2088162;28;20067;-71
2022/05/28 04:57:04;;;;;;;7.45;2.33;;;10.50;99.90;;;;;;2087982;28;20055;-71
2022/05/28 04:58:06;;;;;;;6.85;2.38;;;10.40;99.90;;;;;;2087134;28;20021;-71
2022/05/28 04:59:06;;;;;;;8.25;2.38;;;10.40;99.90;;;;;;2087423;28;20439;-70
2022/05/28 05:00:16;;;;;;;9.93;2.38;;;10.40;99.90;;;;;;2088044;28;20024;-71
2022/05/28 05:01:19;;;;;;;7.03;2.50;;;10.30;99.90;;;;;;2087115;28;20535;-70
2022/05/28 05:02:20;;;;;;;8.00;2.30;;;10.30;99.90;;;;;;2087394;28;20024;-71
2022/05/28 05:03:21;;;;;;;9.52;2.50;;;10.30;99.90;;;;;;2087637;28;20036;-70
2022/05/28 05:04:24;;;;;;;8.32;2.40;;;10.30;99.90;;;;;;2087367;28;20461;-71
2022/05/28 05:05:26;;;;;;;10.68;2.45;;;10.30;99.90;;;;;;2079130;28;20025;-70
2022/05/28 05:06:26;;;;;;;8.80;2.65;;;10.30;99.90;;;;;;2070861;28;20069;-70
2022/05/28 05:07:27;;;;;;;9.85;2.45;;;10.30;99.90;;;;;;2087137;28;20033;-70
2022/05/28 05:08:28;;;;;;;9.80;2.50;;;10.20;99.90;;;;;;2087875;28;20048;-70
2022/05/28 05:09:29;;;;;;;6.00;2.28;;;10.20;99.90;;;;;;2087963;28;20103;-70
2022/05/28 05:10:33;;;;;;;7.20;2.30;;;10.20;99.90;;;;;;2078698;28;20585;-70
2022/05/28 05:11:33;;;;;;;8.90;2.70;;;10.20;99.90;;;;;;2079457;28;20087;-71
2022/05/28 05:12:34;;;;;;;5.93;2.08;;;10.20;99.90;;;;;;2087316;28;20033;-72
2022/05/28 05:13:38;;;;;;;9.50;2.60;;;10.20;99.90;;;;;;2087033;28;20041;-71
2022/05/28 05:14:39;;;;;;;8.38;2.78;;;10.20;99.90;;;;;;2087462;28;20491;-71
2022/05/28 05:15:39;;;;;;;9.75;2.70;;;10.20;99.90;;;;;;2088081;28;20522;-71
2022/05/28 05:16:40;;;;;;;8.45;2.40;;;10.20;99.90;;;;;;2087890;28;20487;-71
2022/05/28 05:17:41;;;;;;;8.07;2.72;;;10.20;99.90;;;;;;2087914;28;20550;-71
2022/05/28 05:18:44;;;;;;;9.80;2.80;;;10.20;99.90;;;;;;2087534;28;20039;-71
2022/05/28 05:19:45;;;;;;;10.38;2.65;;;10.20;99.90;;;;;;2087979;28;20025;-71
2022/05/28 05:20:46;;;;;;;10.73;2.92;;;10.20;99.90;;;;;;2087757;28;20491;-71
2022/05/28 05:21:46;;;;;;;7.60;2.70;;;10.20;99.90;;;;;;2087775;28;20029;-71
2022/05/28 05:22:47;;;;;;;10.18;2.45;;;10.20;99.90;;;;;;2087568;28;20083;-71
2022/05/28 05:23:47;;;;;;;8.02;2.72;;;10.10;99.90;;;;;;2087761;28;20024;-71
2022/05/28 05:24:48;;;;;;;10.13;2.50;;;10.20;99.90;;;;;;2087870;28;20491;-71
2022/05/28 05:25:48;;;;;;;8.70;2.63;;;10.20;99.90;;;;;;2087750;28;20024;-72
2022/05/28 05:26:49;;;;;;;8.10;2.63;;;10.10;99.90;;;;;;2087118;28;20029;-70
2022/05/28 05:27:50;;;;;;;8.88;2.60;;;10.10;99.90;;;;;;2087257;28;20392;-71
2022/05/28 05:28:51;;;;;;;6.15;2.17;;;10.10;99.90;;;;;;2087664;28;20029;-71
2022/05/28 05:29:51;;;;;;;7.03;2.40;;;10.10;99.90;;;;;;2087555;28;20498;-69